2019 Ballard Cup Series III
Aug 12, 2019

Sloop Tavern Yacht Club

Committee Boat - Stella / Crazy Ivan

Race 4
R1 R2 R3 R4 R5 Series Overall

Class: 1 - Non-Flying Sails Division - Start: 18:15:00 - Course: NMENMEN - Distance: 4.178      

Boat Name SailNo Boat Type Skipper Rating Club Start Finish Elapsed Corrected BCE Notes Place OA
Gusto 44119 Swan 441 Beth Miller 108 STYC 18:15:00 19:50:45 1:35:45 1:28:14 0:00:00 1 31
Whistling Swan 69494 Islander 36-1 Bill Pirrie 174 STYC 18:15:00 19:57:53 1:42:53 1:30:46 0:02:32 2 35
Amoretto 79104 Jeanneau Arcada Martin Bower 204 STYC 18:15:00 20:06:50 1:51:50 1:37:38 0:09:24 3 39
Blue Lullaby 391 Newport 28-2 John H Endresen 231 STYC 18:15:00 20:30:18 2:15:18 1:59:13 0:30:59 4 44
White Rabbit 69366 J/40 Bradley Music 105 SBYC 18:15:00 20:26:21 2:11:21 2:04:02 0:35:48 5 45
Mangata 97971 Catalina 380 Steve Zeliadt 153 STYC 18:15:00 DNF 6 46
No Ka Oi 15 J/80 Amy Deckelbaum 141 SSC 18:15:00 DNF 6 46
Flying Redhead 59285 Choate 27 Maxim Oustiougov 180 STYC 18:15:00 DNC 7 47
Frog Prints 79070 Dufr D 34 Tim Onders 192 STYC 18:15:00 DNC 7 47
Midnigt Escape 2806 Kirby 25 Borge Ellingsen 204 STYC 18:15:00 DNC 7 47
Stardust 79977 Hunter Legend 37.5 Tito Soto 153 STYC 18:15:00 DNC 7 47
Wind Dancer 46489 Tartan 3800 Chris McMuldroch 153 STYC 18:15:00 DNC 7 47

Class: 2 - Flying Sails Division - Start: 18:20:00 - Course: NMENMEN - Distance: 4.178      

Boat Name SailNo Boat Type Skipper Rating Club Start Finish Elapsed Corrected BCE Notes Place OA
Lady Too 59382 San Jaun 28 Damon Darley 201 STYC 18:20:00 20:01:02 1:41:02 1:27:02 0:00:00 1 30
Aquavit 3242 If Dave And Jenn 285 Sloop Tavern/Cyc 18:20:00 20:11:38 1:51:38 1:31:47 0:04:45 2 36
Sea Haven 930 Catalina 34 Cary Kaczowka 192 STYC/CYC 18:20:00 DNF 3 46
Airloom 69410 Baba 40-2 Tim Morgenroth 168 STYC 18:20:00 DNC 4 47
Jubilee USA 61251 1984 C&C Landfall 35 David Golden 186 STYC 18:20:00 DNC 4 47
Rock Lobster 59306 San Juan 7.7 Trent Piepho 210 STYC 18:20:00 DNC 4 47
Water Street 1376 Cal 2-24 Mark Jackson 252 STYC 18:20:00 DNC 4 47

Class: 3 - Flying Sails Division - Start: 18:25:00 - Course: NMENMEN - Distance: 4.178      

Boat Name SailNo Boat Type Skipper Rating Club Start Finish Elapsed Corrected BCE Notes Place OA
More Uff Da 26 Moore 24-1 Ben Braden 168 STYC 18:25:00 19:41:48 1:16:48 1:05:06 0:00:00 1 3
La Lucha Moore 131 Moore 24 Joe Grieser 168 STYC 18:25:00 19:42:22 1:17:22 1:05:40 0:00:34 2 4
Wizard 40427 J/27 Leo S Morales 135 WYC 18:25:00 19:45:47 1:20:47 1:11:23 0:06:17 3 9
Perfectly Strange 87210 Pocket Rocket 22-1 Paul Kalina 174 STYC 18:25:00 19:52:45 1:27:45 1:15:38 0:10:32 4 14
Zap 59269 Zap 26 Don Sarin 147 STYC 18:25:00 19:54:53 1:29:53 1:19:39 0:14:33 5 24
The Banana Stand 104 Santa Cruz 27 Adam Yuret 162 STYC 18:25:00 20:05:15 1:40:15 1:28:58 0:23:52 6 33
Morphine 72 Moore 24 Nick Farley 168 STYC 18:25:00 DNC 8 47
Norn 49450 Santa Cruz 27 Mitch Leupold 150 STYC 18:25:00 DNC 8 47

Class: 4 - Flying Sails Division - Start: 18:30:00 - Course: NMENMEN - Distance: 4.178      

Boat Name SailNo Boat Type Skipper Rating Club Start Finish Elapsed Corrected BCE Notes Place OA
Gaucho 68 Ross 930 John Cahill 114 CYC 18:30:00 19:49:17 1:19:17 1:11:21 0:00:00 1 8
Elixir 29 A 101 Jarred Swalwell 150 STYC 18:30:00 19:55:38 1:25:38 1:15:11 0:03:50 2 13
Wings 244 J/29 Jim Moynihan 120 STYC 18:30:00 19:56:49 1:26:49 1:18:28 0:07:07 3 18
Vela Volta 61314 Bavaria Match 35 Steve Kirsch 117 STYC 18:30:00 20:14:13 1:44:13 1:36:04 0:24:43 4 38
Mata Hari 1660 Catalina 36 Mkii Jeff Blyth 147 STYC 18:30:00 20:18:22 1:48:22 1:38:08 0:26:47 5 40
Grayling 7 Q Class Duke H Phan 144 STYC 18:30:00 20:19:14 1:49:14 1:39:12 0:27:51 6 42
20degrees 18602 Wyle Duncan Chalmers 132 STYC 18:30:00 20:21:07 1:51:07 1:41:56 0:30:35 7 43
Kamoon Na Jeanneau Mike Taft 162 STYC 18:30:00 DNF 8 46
Celtic Breeze 233 Ericson 35 Mk3 Glenn Knitter 159 STYC 18:30:00 DNC 9 47
Kowloon 17 Olson 911 Ken Chin 129 STYC 18:30:00 DNC 9 47
Outlaw 77108 J/30 Cindy Gossett 138 STYC 18:30:00 DNC 9 47
Ruby 87603 J/29 Mh John Kazaras 120 STYC 18:30:00 DNC 9 47
Velella 150 Wylie 31 Ryan Helling 165 STYC 18:30:00 DNC 9 47

Class: 5 - Flying Sails Division - Start: 18:35:00 - Course: NMENMEN - Distance: 4.178      

Boat Name SailNo Boat Type Skipper Rating Club Start Finish Elapsed Corrected BCE Notes Place OA
Underdog 85 J/80 Dulnath Wijayratne 129 SSC 18:35:00 19:58:40 1:23:40 1:14:41 0:00:00 1 11
Jolly Green 1 J/80 Mike Poole - Seattle Sailing Club 129 SSC 18:35:00 20:02:55 1:27:55 1:18:56 0:04:15 2 20
Reckless 296 J/80 Sezer Emre 129 STYC 18:35:00 20:03:12 1:28:12 1:19:13 0:04:32 3 21
Taj Mahal 445 J/80 Ian Wong 129 SSC 18:35:00 20:03:33 1:28:33 1:19:34 0:04:53 4 23
Namaste 257 J/80 John Lueders 129 SSC 18:35:00 20:14:25 1:39:25 1:30:26 0:15:45 5 34
Fearful Symmetry 331 J/80 Elise Sivilay 129 SSC 18:35:00 20:17:55 1:42:55 1:33:56 0:19:15 6 37
Stellar J 546 J/80 Andreas Wieberneit 129 SSC 18:35:00 20:22:51 1:47:51 1:38:52 0:24:11 7 41
Uproar 41 J/80 Steve Neidhardt - Seattle Sailing Club 129 SSC 18:35:00 DNC 9 47
Crazy Ivan USA-151 J/80 Bryan Rhodes 129 STYC 18:35:00 CB 9 47

Class: 6 - Flying Sails Division - Start: 18:40:00 - Course: NMENMEN - Distance: 4.178      

Boat Name SailNo Boat Type Skipper Rating Club Start Finish Elapsed Corrected BCE Notes Place OA
Poke & Destroy 69061 Evelyn 32-2 Alex P Simanis 93 STYC 18:40:00 19:53:03 1:13:03 1:06:34 0:00:00 1 5
Insubordination 212 J/105 Buckey 93 CYC 18:40:00 20:02:35 1:22:35 1:16:06 0:09:32 2 15
Creative 51911 J/105 Steve Summers - Seattle Sailing Club 93 SSC 18:40:00 20:04:34 1:24:34 1:18:05 0:11:31 3 17
Corvo 105 475 J/105 Tom Kerr 93 STYC 18:40:00 20:05:00 1:25:00 1:18:31 0:11:57 4 19
Peer Gynt 235 J/105 Paul Viola 93 STYC 18:40:00 20:08:46 1:28:46 1:22:17 0:15:43 5 27
Dazed And Confused 129 Olson 30 Barry Crist 99 None Yet 18:40:00 20:09:21 1:29:21 1:22:27 0:15:53 Rating Pending 6 28
Puff 115 J/105 Ryan Porter 93 SSC 18:40:00 20:12:22 1:32:22 1:25:53 0:19:19 7 29
Cyrano 253 J/105 Seattle Sailing Club 99 SSC 18:40:00 20:15:32 1:35:32 1:28:38 0:22:04 8 32
Liftoff 621 J/105 Philippe Le Mouel 93 STYC 18:40:00 RET 9 46
Avalanche 495 J/105 Jeremy Boynes 93 STYC 18:40:00 DNC 10 47
Latitude 60680 Jeanneau 409 Bill Gibson 93 STYC 18:40:00 DNC 10 47
Moose Unknown 89 J/105 John Aitchison 93 STYC 18:40:00 DNC 10 47
Paladin 412 J/105 Phil Bylsma - Seattle Sailing Club 93 SSC 18:40:00 DNC 10 47
Poisson Soluble 69351 Hobie 33 Robert Horsley 96 STYC 18:40:00 DNC 10 47

Class: 7 - Flying Sails Division - Start: 18:45:00 - Course: NMENMEN - Distance: 4.178      

Boat Name SailNo Boat Type Skipper Rating Club Start Finish Elapsed Corrected BCE Notes Place OA
Nefarous USA 53 Farr 30 Dan Randolph 54 STYC 18:45:00 19:51:32 1:06:32 1:02:46 0:00:00 1 1
Project Mayhem USA 64 Farr 30 Grady Morgan 54 SYC 18:45:00 19:53:43 1:08:43 1:04:57 0:02:11 2 2
Eclipse 256 J/109-2 Fraser 69 STYC 18:45:00 20:00:21 1:15:21 1:10:33 0:07:47 3 6
Freja RSA 2 Aerodyne 43 Jonathan Cruse 18 STYC 18:45:00 19:57:16 1:12:16 1:11:01 0:08:15 4 7
Tachyon 36000 Farr 39 C/R Jack Yinger 18 CYC 18:45:00 20:00:02 1:15:02 1:13:47 0:11:01 5 10
Different Drummer 52804 Wauqueiz Centurion 40s Charles Hill 81 STYC 18:45:00 20:05:44 1:20:44 1:15:06 0:12:20 6 12
Bat Out Of Hell USA 55 Farr 30 Lance Staughton 54 STYC 18:45:00 20:06:26 1:21:26 1:17:40 0:14:54 7 16
Those Guys 18155 J/35 Jenny Heins 72 STYC 18:45:00 20:09:23 1:24:23 1:19:22 0:16:36 8 22
Lapa 309 J/109 Michael Campbell 69 STYC 18:45:00 20:10:49 1:25:49 1:21:01 0:18:15 9 25
Shada 44 J/109 Jerry Woodfield 69 CYC 18:45:00 20:11:34 1:26:34 1:21:46 0:19:00 10 26
Artemis 97703 Andrews 53 Tom Muir -18 STYC 18:45:00 DNC 12 47
Escape 69160 Corsair F -27 Yury Palatnikov 79 Styc/Nwma 18:45:00 DNC 12 47
Lodos 171 J/109 Tolga Cezik 69 STYC/CYC 18:45:00 DNC 12 47
Re-Quest 18266 Express 37 Alex Wetmore & Kerry Billingham 72 STYC 18:45:00 DNC 12 47
Tantivy 248 J/109 Stuart Burnell 69 CYC 18:45:00 DNC 12 47

STYC scoring (Thu, Aug 8, 2019 - 06:48:14 ver)